createdAt,value
2023-01-23T00:00:35.858Z,14.27
2023-01-23T00:05:41.247Z,15.33
2023-01-23T00:10:46.776Z,13.20
2023-01-23T00:15:52.537Z,15.23
2023-01-23T00:20:58.914Z,16.17
2023-01-23T00:26:07.082Z,15.07
2023-01-23T00:31:15.976Z,14.27
2023-01-23T00:36:21.781Z,13.03
2023-01-23T00:41:28.270Z,15.57
2023-01-23T00:46:35.171Z,14.37
2023-01-23T00:51:40.713Z,16.03
2023-01-23T00:56:46.156Z,16.40
2023-01-23T01:01:53.087Z,16.37
2023-01-23T01:06:59.630Z,16.73
2023-01-23T01:12:05.342Z,13.73
2023-01-23T01:17:10.884Z,12.33
2023-01-23T01:22:16.617Z,14.80
2023-01-23T01:27:22.797Z,15.20
2023-01-23T01:32:28.758Z,12.47
2023-01-23T01:37:36.746Z,13.10
2023-01-23T01:42:45.023Z,14.93
2023-01-23T01:47:50.416Z,11.87
2023-01-23T01:52:56.219Z,15.00
2023-01-23T01:58:02.853Z,13.17
2023-01-23T02:03:09.055Z,11.57
2023-01-23T02:08:30.194Z,16.13
2023-01-23T02:13:39.944Z,14.70
2023-01-23T02:18:51.453Z,15.73
2023-01-23T02:24:04.865Z,14.77
2023-01-23T02:29:11.351Z,14.33
2023-01-23T02:34:22.936Z,13.63
2023-01-23T02:39:28.542Z,15.63
2023-01-23T02:44:34.556Z,13.10
2023-01-23T02:49:42.912Z,14.20
2023-01-23T02:54:48.702Z,11.90
2023-01-23T03:00:12.180Z,13.43
2023-01-23T03:05:19.441Z,10.93
2023-01-23T03:10:24.998Z,12.43
2023-01-23T03:15:31.649Z,10.60
2023-01-23T03:20:42.337Z,11.67
2023-01-23T03:25:49.143Z,10.47
2023-01-23T03:30:54.689Z,12.90
2023-01-23T03:36:01.245Z,12.40
2023-01-23T03:41:25.486Z,14.23
2023-01-23T03:46:32.839Z,13.97
2023-01-23T03:51:38.739Z,10.80
2023-01-23T03:56:44.477Z,10.90
2023-01-23T04:02:12.737Z,13.90
2023-01-23T04:07:18.375Z,10.53
2023-01-23T04:12:25.588Z,11.40
2023-01-23T04:17:32.544Z,12.63
2023-01-23T04:22:38.244Z,14.10
2023-01-23T04:27:43.878Z,13.93
2023-01-23T04:32:50.100Z,12.07
2023-01-23T04:37:56.762Z,13.50
2023-01-23T04:43:03.450Z,13.83
2023-01-23T04:48:11.319Z,13.63
2023-01-23T04:53:17.263Z,14.93
2023-01-23T04:58:23.808Z,15.47
2023-01-23T05:03:29.538Z,14.00
2023-01-23T05:08:35.301Z,14.63
2023-01-23T05:13:42.642Z,12.20
2023-01-23T05:18:48.515Z,14.93
2023-01-23T05:23:54.737Z,15.30
2023-01-23T05:29:00.563Z,14.03
2023-01-23T05:34:06.955Z,13.77
2023-01-23T05:39:14.174Z,12.30
2023-01-23T05:44:21.026Z,12.27
2023-01-23T05:49:28.256Z,12.73
2023-01-23T05:54:34.423Z,12.77
2023-01-23T05:59:40.544Z,12.87
2023-01-23T06:04:55.916Z,18.43
2023-01-23T06:10:03.173Z,12.73
2023-01-23T06:15:10.997Z,10.33
2023-01-23T06:20:16.810Z,14.50
2023-01-23T06:25:23.395Z,12.83
2023-01-23T06:30:30.470Z,13.17
2023-01-23T06:35:36.122Z,13.47
2023-01-23T06:40:45.131Z,15.47
2023-01-23T06:45:52.342Z,15.87
2023-01-23T06:51:01.283Z,14.10
2023-01-23T06:56:09.095Z,12.10
2023-01-23T07:01:17.854Z,13.30
2023-01-23T07:06:32.003Z,14.40
2023-01-23T07:11:37.739Z,15.83
2023-01-23T07:16:43.879Z,13.40
2023-01-23T07:21:50.745Z,16.17
2023-01-23T07:26:56.144Z,14.90
2023-01-23T07:32:01.637Z,13.33
2023-01-23T07:37:07.169Z,12.17
2023-01-23T07:42:13.009Z,13.57
2023-01-23T07:47:19.730Z,13.60
2023-01-23T07:52:25.416Z,14.07
2023-01-23T07:57:31.061Z,12.07
2023-01-23T08:02:37.925Z,13.50
2023-01-23T08:07:44.303Z,13.30
2023-01-23T08:12:49.755Z,15.40
2023-01-23T08:17:55.685Z,15.40
2023-01-23T08:23:02.585Z,15.23
2023-01-23T08:28:08.112Z,15.60
2023-01-23T08:33:13.715Z,13.37
2023-01-23T08:38:19.904Z,15.87
2023-01-23T08:43:25.361Z,14.60
2023-01-23T08:48:31.414Z,12.23
2023-01-23T08:53:37.851Z,13.50
2023-01-23T08:58:43.552Z,13.13
2023-01-23T09:03:49.395Z,14.23
2023-01-23T09:08:54.934Z,11.97
2023-01-23T09:14:00.319Z,10.03
2023-01-23T09:19:05.694Z,10.43
2023-01-23T09:24:11.288Z,10.40
2023-01-23T09:29:17.125Z,10.60
2023-01-23T09:34:22.597Z,10.90
2023-01-23T09:39:28.203Z,12.00
2023-01-23T09:44:53.273Z,10.63
2023-01-23T09:50:02.171Z,10.63
2023-01-23T09:55:16.484Z,10.67
2023-01-23T10:00:33.087Z,11.90
2023-01-23T10:05:58.271Z,13.43
2023-01-23T10:11:30.391Z,10.67
2023-01-23T10:16:50.416Z,14.73
2023-01-23T10:22:00.455Z,14.27
2023-01-23T10:27:14.461Z,13.87
2023-01-23T10:38:04.582Z,10.13
2023-01-23T10:43:15.373Z,11.97
2023-01-23T10:48:39.593Z,11.90
2023-01-23T10:53:45.318Z,8.70
2023-01-23T10:58:51.442Z,11.13
2023-01-23T11:03:57.607Z,7.40
2023-01-23T11:09:04.838Z,8.27
2023-01-23T11:14:17.978Z,8.00
2023-01-23T11:19:24.540Z,8.40
2023-01-23T11:24:40.867Z,8.10
2023-01-23T11:29:58.652Z,8.17
2023-01-23T11:35:16.036Z,9.27
2023-01-23T11:40:22.011Z,8.37
2023-01-23T11:45:33.049Z,7.60
2023-01-23T11:50:54.950Z,8.17
2023-01-23T11:55:57.289Z,8.13
2023-01-23T12:01:25.333Z,10.70
2023-01-23T12:06:42.617Z,8.33
2023-01-23T12:12:06.032Z,9.40
2023-01-23T12:17:29.685Z,9.03
2023-01-23T12:22:38.158Z,9.33
2023-01-23T12:27:46.179Z,8.10
2023-01-23T12:33:14.659Z,8.80
2023-01-23T12:38:35.179Z,9.33
2023-01-23T12:43:43.621Z,7.80
2023-01-23T12:49:01.189Z,9.23
2023-01-23T12:54:09.622Z,8.10
2023-01-23T12:59:20.833Z,14.00
2023-01-23T13:04:44.878Z,13.07
2023-01-23T13:09:57.404Z,11.47
2023-01-23T13:15:30.832Z,11.87
2023-01-23T13:20:55.297Z,11.27
2023-01-23T13:26:22.189Z,9.43
2023-01-23T13:31:47.293Z,10.67
2023-01-23T13:36:54.099Z,10.50
2023-01-23T13:42:18.665Z,9.87
2023-01-23T13:47:45.145Z,9.20
2023-01-23T13:53:14.218Z,8.23
2023-01-23T13:58:22.594Z,6.60
2023-01-23T14:03:48.799Z,11.23
2023-01-23T14:08:55.960Z,9.63
2023-01-23T14:14:21.590Z,15.10
2023-01-23T14:19:31.495Z,13.23
2023-01-23T14:24:46.113Z,10.87
2023-01-23T14:30:02.999Z,10.33
2023-01-23T14:35:21.117Z,9.63
2023-01-23T14:40:33.232Z,11.43
2023-01-23T14:45:35.551Z,9.90
2023-01-23T14:50:41.209Z,9.97
2023-01-23T14:55:50.752Z,9.87
2023-01-23T15:00:56.980Z,10.23
2023-01-23T15:06:05.614Z,12.93
2023-01-23T15:11:13.359Z,13.33
2023-01-23T15:16:29.121Z,26.87
2023-01-23T15:21:40.864Z,46.83
2023-01-23T15:26:51.732Z,35.77
2023-01-23T15:32:00.687Z,37.17
2023-01-23T15:37:21.347Z,31.80
2023-01-23T15:42:35.280Z,25.30
2023-01-23T15:47:40.830Z,27.27
2023-01-23T15:52:49.240Z,18.40
2023-01-23T15:57:55.966Z,20.33
2023-01-23T16:03:01.767Z,34.03
2023-01-23T16:08:09.503Z,25.90
2023-01-23T16:13:15.619Z,25.23
2023-01-23T16:18:21.275Z,17.80
2023-01-23T16:23:31.227Z,15.70
2023-01-23T16:28:34.210Z,9.50
2023-01-23T16:33:39.677Z,9.00
2023-01-23T16:38:51.790Z,8.77
2023-01-23T16:43:57.401Z,11.90
2023-01-23T16:49:02.876Z,13.27
2023-01-23T16:54:18.250Z,13.23
2023-01-23T16:59:20.548Z,11.10
2023-01-23T17:04:26.000Z,12.57
2023-01-23T17:09:31.467Z,12.07
2023-01-23T17:14:38.194Z,14.07
2023-01-23T17:19:45.259Z,11.03
2023-01-23T17:24:50.878Z,12.10
2023-01-23T17:29:56.407Z,9.83
2023-01-23T17:35:04.234Z,9.77
2023-01-23T17:40:12.904Z,8.40
2023-01-23T17:45:21.044Z,8.10
2023-01-23T17:50:27.914Z,6.73
2023-01-23T17:55:33.500Z,9.00
2023-01-23T18:00:40.632Z,10.23
2023-01-23T18:05:46.187Z,10.87
2023-01-23T18:10:54.066Z,12.60
2023-01-23T18:16:26.840Z,9.07
2023-01-23T18:21:32.736Z,8.53
2023-01-23T18:26:59.969Z,8.93
2023-01-23T18:32:24.817Z,9.33
2023-01-23T18:37:48.632Z,9.07
2023-01-23T18:43:03.028Z,10.77
2023-01-23T18:48:24.729Z,11.30
2023-01-23T18:53:28.273Z,10.37
2023-01-23T18:58:50.291Z,9.90
2023-01-23T19:03:57.453Z,10.87
2023-01-23T19:09:03.589Z,10.60
2023-01-23T19:14:17.683Z,10.93
2023-01-23T19:19:28.923Z,9.47
2023-01-23T19:24:34.624Z,11.17
2023-01-23T19:29:41.330Z,9.80
2023-01-23T19:34:46.786Z,11.10
2023-01-23T19:39:52.166Z,12.63
2023-01-23T19:44:57.562Z,8.23
2023-01-23T19:50:03.028Z,12.23
2023-01-23T19:55:08.800Z,10.00
2023-01-23T20:00:18.619Z,8.23
2023-01-23T20:05:24.957Z,12.37
2023-01-23T20:10:30.566Z,10.60
2023-01-23T20:15:36.058Z,13.23
2023-01-23T20:20:41.601Z,13.13
2023-01-23T20:25:47.180Z,11.90
2023-01-23T20:30:54.303Z,12.97
2023-01-23T20:35:59.918Z,14.80
2023-01-23T20:41:07.925Z,11.00
2023-01-23T20:46:15.627Z,13.47
2023-01-23T20:51:21.179Z,10.57
2023-01-23T20:56:28.294Z,12.90
2023-01-23T21:01:54.397Z,12.20
2023-01-23T21:07:00.220Z,10.97
2023-01-23T21:12:06.299Z,10.63
2023-01-23T21:17:12.052Z,12.10
2023-01-23T21:22:17.468Z,11.17
2023-01-23T21:27:25.131Z,11.83
2023-01-23T21:32:30.300Z,12.40
2023-01-23T21:37:36.189Z,13.97
2023-01-23T21:42:41.868Z,13.07
2023-01-23T21:47:47.380Z,12.87
2023-01-23T21:52:52.902Z,15.57
2023-01-23T21:57:58.377Z,12.07
2023-01-23T22:03:03.937Z,13.87
2023-01-23T22:08:09.454Z,12.77
2023-01-23T22:13:15.089Z,14.47
2023-01-23T22:18:20.482Z,15.33
2023-01-23T22:23:26.906Z,14.00
2023-01-23T22:28:33.645Z,13.57
2023-01-23T22:33:43.995Z,16.93
2023-01-23T22:38:54.038Z,19.83
2023-01-23T22:44:02.335Z,17.27
2023-01-23T22:49:07.808Z,14.20
2023-01-23T22:54:13.434Z,15.03
2023-01-23T22:59:18.823Z,13.43
2023-01-23T23:04:24.242Z,12.00
2023-01-23T23:09:29.952Z,16.67
2023-01-23T23:14:37.021Z,17.50
2023-01-23T23:19:42.494Z,16.20
2023-01-23T23:24:49.505Z,17.30
2023-01-23T23:29:54.916Z,17.17
2023-01-23T23:35:00.446Z,18.40
2023-01-23T23:40:06.919Z,15.90
2023-01-23T23:45:12.861Z,17.40
2023-01-23T23:50:18.771Z,18.80
2023-01-23T23:55:24.158Z,15.53
